Time;durP1;ratioP1;P1;durP2;ratioP2;P2;SDS_P1;SDS_P2;PMS_P1;PMS_P2;Temp;Humidity;BMP_temperature;BMP_pressure;BME280_temperature;BME280_humidity;BME280_pressure;Samples;Min_cycle;Max_cycle;Signal;HPM_P1;HPM_P2
2022/04/21 00:02:23;;;;;;;4.43;3.70;;;;;;;6.99;69.53;99401.22;4985919;28;20044;-93
2022/04/21 00:04:49;;;;;;;4.10;3.33;;;;;;;7.02;68.86;99392.72;5014526;28;20066;-92
2022/04/21 00:07:14;;;;;;;3.22;2.83;;;;;;;7.12;67.68;99421.50;4997230;28;20077;-93
2022/04/21 00:09:40;;;;;;;3.75;3.38;;;;;;;7.03;67.17;99389.78;4997791;28;20030;-92
2022/04/21 00:12:06;;;;;;;3.65;3.03;;;;;;;7.13;67.78;99385.66;4998283;28;20030;-91
2022/04/21 00:14:31;;;;;;;4.22;3.25;;;;;;;7.07;68.25;99384.75;4997999;28;20006;-92
2022/04/21 00:16:57;;;;;;;3.50;3.20;;;;;;;7.05;68.56;99376.97;4996837;28;20112;-92
2022/04/21 00:19:23;;;;;;;3.47;3.17;;;;;;;6.95;69.34;99379.53;4997471;28;20026;-91
2022/04/21 00:24:32;;;;;;;3.63;2.80;;;;;;;6.72;69.37;99385.81;5014834;28;20085;-92
2022/04/21 00:26:58;;;;;;;3.08;2.78;;;;;;;6.66;69.97;99376.09;5017713;28;20021;-92
2022/04/21 00:29:24;;;;;;;3.50;3.20;;;;;;;6.82;70.22;99402.03;5017751;28;20031;-92
2022/04/21 00:31:50;;;;;;;3.47;3.17;;;;;;;6.75;70.23;99392.56;5017107;28;20072;-93
2022/04/21 00:34:18;;;;;;;3.10;2.80;;;;;;;6.79;69.41;99401.75;5002058;28;20038;-93
2022/04/21 00:36:44;;;;;;;3.20;2.90;;;;;;;6.95;68.82;99402.78;5017780;28;20033;-91
2022/04/21 00:39:10;;;;;;;3.90;3.30;;;;;;;6.98;69.30;99413.00;5001105;28;20022;-91
2022/04/21 00:41:35;;;;;;;3.28;2.97;;;;;;;7.00;68.62;99403.69;5015704;28;20017;-92
2022/04/21 00:44:01;;;;;;;3.78;2.92;;;;;;;7.17;69.24;99417.03;4968901;28;20018;-92
2022/04/21 00:46:27;;;;;;;4.35;3.03;;;;;;;7.16;69.74;99411.94;4984835;28;20041;-92
2022/04/21 00:48:52;;;;;;;3.60;3.22;;;;;;;7.05;69.81;99405.63;5017090;28;20026;-92
2022/04/21 00:51:18;;;;;;;3.80;3.40;;;;;;;7.17;69.15;99390.28;5015948;28;20578;-93
2022/04/21 00:53:43;;;;;;;4.13;3.42;;;;;;;7.17;69.89;99398.31;5016440;28;20088;-92
2022/04/21 00:56:09;;;;;;;3.92;3.53;;;;;;;7.19;68.66;99398.88;5016430;28;20022;-93
2022/04/21 00:58:35;;;;;;;4.00;3.60;;;;;;;7.08;69.91;99415.84;5000236;28;20061;-92
2022/04/21 01:01:01;;;;;;;4.72;3.67;;;;;;;7.06;69.17;99418.75;4966766;28;20026;-93
2022/04/21 01:03:27;;;;;;;4.00;3.28;;;;;;;7.00;70.11;99416.25;5016316;28;20394;-93
2022/04/21 01:05:53;;;;;;;7.90;3.80;;;;;;;6.92;69.62;99412.13;5017590;28;20109;-93
2022/04/21 01:08:18;;;;;;;3.80;3.40;;;;;;;6.96;69.04;99405.22;5016889;28;20033;-93
2022/04/21 01:10:45;;;;;;;3.90;3.53;;;;;;;7.12;69.29;99419.66;4983325;28;20026;-93
2022/04/21 01:13:11;;;;;;;4.85;3.60;;;;;;;7.13;68.48;99421.28;5000185;28;20064;-93
2022/04/21 01:15:37;;;;;;;3.75;3.42;;;;;;;7.06;69.00;99420.63;5000562;28;20026;-93
2022/04/21 01:18:03;;;;;;;7.22;3.50;;;;;;;7.16;67.80;99426.16;4984063;28;20010;-93
2022/04/21 01:20:29;;;;;;;6.07;3.55;;;;;;;7.03;69.10;99421.13;4983673;28;20075;-93
2022/04/21 01:22:55;;;;;;;4.50;3.60;;;;;;;7.12;67.29;99427.69;4999609;28;20022;-93
2022/04/21 01:25:21;;;;;;;3.90;3.50;;;;;;;7.05;67.60;99419.81;5000527;28;20069;-93
2022/04/21 01:27:47;;;;;;;3.72;3.40;;;;;;;7.12;68.12;99426.84;5000797;28;20029;-93
2022/04/21 01:30:12;;;;;;;5.20;4.63;;;;;;;7.20;67.88;99434.47;4983637;28;20492;-93
2022/04/21 01:32:42;;;;;;;4.22;3.70;;;;;;;7.03;68.79;99421.91;4998440;28;20041;-92
2022/04/21 01:35:08;;;;;;;4.22;3.83;;;;;;;7.07;67.25;99428.41;4999897;28;20439;-93
2022/04/21 01:43:03;;;;;;;4.32;3.92;;;;;;;7.05;66.76;99410.97;5016273;28;20036;-93
2022/04/21 01:45:28;;;;;;;4.93;4.40;;;;;;;6.91;67.84;99410.50;4999346;28;20480;-93
2022/04/21 01:47:57;;;;;;;4.20;3.80;;;;;;;6.96;66.46;99412.44;4997851;28;20112;-92
2022/04/21 01:50:23;;;;;;;4.35;3.92;;;;;;;7.06;65.41;99423.31;5000097;28;20030;-93
2022/04/21 01:52:49;;;;;;;4.80;4.10;;;;;;;6.86;66.89;99416.56;5002063;28;20092;-93
2022/04/21 01:55:14;;;;;;;4.15;3.75;;;;;;;6.85;66.55;99414.16;5003929;28;20034;-92
2022/04/21 01:57:40;;;;;;;4.57;4.10;;;;;;;6.93;66.82;99420.94;5017961;28;20041;-93
2022/04/21 02:00:06;;;;;;;4.35;3.83;;;;;;;6.87;67.38;99420.88;5003303;28;20038;-92
2022/04/21 02:02:32;;;;;;;4.85;3.63;;;;;;;6.98;65.74;99426.41;5003221;28;20049;-92
2022/04/21 02:04:59;;;;;;;5.68;4.05;;;;;;;7.03;66.36;99421.91;4967938;28;20499;-93
2022/04/21 02:07:25;;;;;;;5.20;3.97;;;;;;;7.05;67.30;99427.84;4982448;28;20030;-92
2022/04/21 02:09:50;;;;;;;7.07;3.92;;;;;;;6.93;66.63;99418.28;4996596;28;20029;-91
2022/04/21 02:12:16;;;;;;;4.60;4.10;;;;;;;6.96;66.49;99423.16;4983718;28;20038;-91
2022/04/21 02:14:44;;;;;;;5.43;4.68;;;;;;;6.87;67.15;99410.16;5001348;28;20048;-91
2022/04/21 02:17:09;;;;;;;4.80;4.30;;;;;;;6.83;67.67;99418.94;4983650;28;20118;-92
2022/04/21 02:19:36;;;;;;;9.52;4.60;;;;;;;6.75;68.82;99416.66;4967882;28;20062;-92
2022/04/21 02:22:01;;;;;;;6.15;4.70;;;;;;;6.80;69.08;99430.09;4983904;28;20038;-91
2022/04/21 02:24:27;;;;;;;6.63;5.57;;;;;;;6.68;70.67;99424.81;4967726;28;20017;-92
2022/04/21 02:26:53;;;;;;;6.95;5.32;;;;;;;6.60;70.50;99422.53;4983421;28;20030;-92
2022/04/21 02:29:18;;;;;;;6.40;5.55;;;;;;;6.50;71.05;99431.22;4965608;28;20089;-91
2022/04/21 02:31:43;;;;;;;6.70;6.00;;;;;;;6.40;71.66;99420.31;4970718;28;20031;-91
2022/04/21 02:34:09;;;;;;;6.20;5.28;;;;;;;6.50;71.87;99427.72;4980061;28;20027;-92
2022/04/21 02:36:35;;;;;;;6.72;5.22;;;;;;;6.53;71.11;99433.38;4965312;28;20034;-92
2022/04/21 02:39:00;;;;;;;6.75;5.32;;;;;;;6.56;70.01;99418.75;4982200;28;20081;-92
2022/04/21 02:41:26;;;;;;;7.32;6.07;;;;;;;6.57;72.16;99417.69;4982858;28;20026;-91
2022/04/21 02:43:52;;;;;;;9.27;6.15;;;;;;;6.47;71.61;99424.47;4982994;28;20046;-90
2022/04/21 02:46:17;;;;;;;6.53;5.90;;;;;;;6.38;71.56;99411.72;4982802;28;20064;-91
2022/04/21 02:48:43;;;;;;;10.05;7.65;;;;;;;6.36;71.16;99408.47;4979058;28;20031;-92
2022/04/21 02:51:09;;;;;;;14.73;9.45;;;;;;;6.38;69.90;99403.72;4967098;28;20038;-92
2022/04/21 02:59:02;;;;;;;13.05;8.43;;;;;;;6.18;71.74;99414.81;4971497;28;20030;-92
2022/04/21 03:01:28;;;;;;;10.88;7.55;;;;;;;6.19;70.27;99405.78;4967722;28;20026;-93
2022/04/21 03:03:56;;;;;;;10.35;8.07;;;;;;;6.16;71.01;99414.25;4984427;28;20392;-92
2022/04/21 03:06:22;;;;;;;7.38;6.35;;;;;;;6.13;70.22;99412.06;5002158;28;20062;-92
2022/04/21 03:08:48;;;;;;;10.10;7.25;;;;;;;6.06;71.25;99405.00;5003755;28;20053;-93
2022/04/21 03:11:14;;;;;;;12.02;8.07;;;;;;;5.91;72.08;99399.31;5002488;28;20014;-92
2022/04/21 03:13:39;;;;;;;10.75;8.35;;;;;;;5.76;72.50;99417.72;4984284;28;20022;-93
2022/04/21 03:16:05;;;;;;;14.55;8.93;;;;;;;5.62;72.43;99406.47;4986124;28;20022;-92
2022/04/21 03:18:30;;;;;;;12.50;8.55;;;;;;;5.62;72.79;99409.97;4985906;28;20037;-92
2022/04/21 03:26:28;;;;;;;8.73;7.00;;;;;;;5.35;73.25;99390.94;5002717;28;20077;-91
2022/04/21 03:28:54;;;;;;;10.30;7.13;;;;;;;5.25;74.26;99394.22;4982053;28;20014;-92
2022/04/21 03:31:19;;;;;;;8.13;7.30;;;;;;;5.34;74.03;99397.34;4985380;28;20021;-93
2022/04/21 03:33:46;;;;;;;8.68;7.07;;;;;;;5.36;74.27;99407.78;4984323;28;20092;-93
2022/04/21 03:36:11;;;;;;;10.52;6.80;;;;;;;5.42;73.65;99406.84;4996425;28;20097;-93
2022/04/21 03:38:39;;;;;;;25.52;17.60;;;;;;;5.39;73.96;99410.78;5017518;28;20211;-93
2022/04/21 03:41:05;;;;;;;27.88;20.63;;;;;;;5.31;73.35;99405.00;4978625;28;20036;-93
2022/04/21 03:43:31;;;;;;;36.70;26.08;;;;;;;5.34;72.90;99409.88;5001002;28;20026;-93
2022/04/21 03:45:56;;;;;;;29.10;19.55;;;;;;;5.36;72.69;99413.94;4977826;28;20037;-92
2022/04/21 03:48:22;;;;;;;31.67;21.60;;;;;;;5.36;73.89;99411.25;5001218;28;20053;-92
2022/04/21 03:50:48;;;;;;;26.40;18.33;;;;;;;5.41;73.33;99415.91;4984366;28;20028;-92
2022/04/21 03:53:14;;;;;;;28.33;18.98;;;;;;;5.31;73.80;99408.47;5002279;28;20041;-92
2022/04/21 03:55:39;;;;;;;14.65;9.63;;;;;;;5.13;75.38;99424.63;4969473;28;20025;-92
2022/04/21 03:58:05;;;;;;;11.25;8.73;;;;;;;5.00;75.90;99426.47;4985101;28;20022;-94
2022/04/21 04:00:30;;;;;;;14.13;9.25;;;;;;;4.79;76.55;99433.16;4984603;28;20022;-93
2022/04/21 04:02:56;;;;;;;9.80;7.95;;;;;;;4.74;75.68;99443.69;4999515;28;20041;-93
2022/04/21 04:05:21;;;;;;;15.93;13.88;;;;;;;4.75;75.44;99441.84;5005215;28;20091;-92
2022/04/21 04:13:15;;;;;;;15.93;8.85;;;;;;;4.85;75.41;99447.41;5024245;28;20036;-92
2022/04/21 04:15:40;;;;;;;18.40;10.18;;;;;;;4.82;76.25;99437.22;5018998;28;20029;-93
2022/04/21 04:18:06;;;;;;;14.57;10.25;;;;;;;4.85;76.68;99436.75;5008259;28;20037;-92
2022/04/21 04:20:31;;;;;;;11.52;9.43;;;;;;;4.95;75.35;99421.00;5002358;28;20069;-93
2022/04/21 04:22:57;;;;;;;9.15;7.15;;;;;;;4.96;74.56;99435.97;4969876;28;20034;-93
2022/04/21 04:25:26;;;;;;;8.48;6.78;;;;;;;5.09;74.17;99442.13;4968358;28;20080;-93
2022/04/21 04:27:51;;;;;;;11.07;5.93;;;;;;;5.12;74.02;99447.00;4970456;28;20014;-93
2022/04/21 04:30:16;;;;;;;10.35;6.53;;;;;;;5.00;73.48;99426.47;4971263;28;20037;-94
2022/04/21 04:32:42;;;;;;;12.07;7.47;;;;;;;5.07;73.79;99424.50;4992828;28;20017;-95
2022/04/21 04:35:08;;;;;;;11.75;8.55;;;;;;;5.22;73.53;99428.56;5003738;28;20029;-92
2022/04/21 04:37:33;;;;;;;36.45;25.95;;;;;;;5.18;72.57;99425.53;5004268;28;20045;-93
2022/04/21 04:39:59;;;;;;;11.95;6.78;;;;;;;5.36;71.75;99451.31;5001498;28;20075;-93
2022/04/21 04:42:25;;;;;;;9.32;7.22;;;;;;;5.37;71.58;99439.56;5004506;28;20021;-91
2022/04/21 04:46:34;;;;;;;7.07;5.38;;;;;;;5.23;71.06;99430.19;5021091;28;20038;-93
2022/04/21 04:47:40;;;;;;;8.40;7.18;;;;;;;5.24;72.10;99440.63;5023682;28;20057;-91
2022/04/21 04:50:06;;;;;;;15.77;6.60;;;;;;;5.37;70.95;99444.13;5019772;28;20494;-91
2022/04/21 04:52:32;;;;;;;6.53;4.88;;;;;;;5.43;70.70;99438.66;5018916;28;20021;-92
2022/04/21 04:54:58;;;;;;;6.72;4.43;;;;;;;5.57;69.26;99449.09;5022799;28;20053;-92
2022/04/21 04:57:24;;;;;;;7.15;4.72;;;;;;;5.72;69.57;99453.97;5005458;28;20098;-93
2022/04/21 04:59:50;;;;;;;6.05;5.15;;;;;;;5.62;69.60;99435.84;5003453;28;20491;-90
2022/04/21 05:02:20;;;;;;;8.23;6.28;;;;;;;5.60;71.16;99430.75;4995827;28;20038;-89
2022/04/21 05:04:49;;;;;;;9.13;5.78;;;;;;;5.67;71.41;99422.63;4983704;28;20550;-91
2022/04/21 05:07:14;;;;;;;6.55;5.00;;;;;;;5.82;69.69;99441.63;4978428;28;20090;-89
2022/04/21 05:09:40;;;;;;;5.80;4.88;;;;;;;5.91;69.51;99431.38;4979449;28;20025;-88
2022/04/21 05:12:06;;;;;;;6.93;4.55;;;;;;;5.95;69.56;99445.91;4982169;28;20017;-92
2022/04/21 05:14:31;;;;;;;6.05;4.80;;;;;;;6.09;69.64;99441.13;5001367;28;20034;-95
2022/04/21 05:16:57;;;;;;;9.90;5.65;;;;;;;6.11;69.26;99414.16;4990556;28;20029;-92
2022/04/21 05:19:23;;;;;;;11.73;5.75;;;;;;;6.20;68.84;99431.44;4988985;28;20022;-91
2022/04/21 05:21:49;;;;;;;9.95;6.72;;;;;;;6.22;67.98;99419.44;5003321;28;20036;-95
2022/04/21 05:24:15;;;;;;;10.05;4.85;;;;;;;6.43;67.75;99425.19;4988340;28;20049;-93
2022/04/21 05:26:41;;;;;;;9.13;5.47;;;;;;;6.47;67.48;99432.50;4986391;28;20037;-91
2022/04/21 05:32:02;;;;;;;8.40;5.00;;;;;;;6.51;66.89;99418.63;4997694;28;20038;-92
2022/04/21 05:34:29;;;;;;;14.70;4.57;;;;;;;6.66;67.58;99425.09;4993385;28;20022;-93
2022/04/21 05:36:54;;;;;;;9.32;5.20;;;;;;;6.70;68.04;99437.97;4992062;28;20033;-90
2022/04/21 05:39:20;;;;;;;7.75;4.65;;;;;;;6.76;65.61;99451.19;4984752;28;20018;-94
2022/04/21 05:41:47;;;;;;;9.98;5.10;;;;;;;6.85;67.19;99435.56;5010926;28;20048;-90
2022/04/21 05:44:13;;;;;;;6.60;5.00;;;;;;;6.99;66.16;99431.50;4995669;28;20018;-90
2022/04/21 05:46:39;;;;;;;9.75;4.78;;;;;;;7.17;65.81;99433.13;4987287;28;20056;-91
2022/04/21 05:49:05;;;;;;;10.60;6.28;;;;;;;7.14;66.00;99419.41;4998922;28;20032;-91
2022/04/21 05:51:36;;;;;;;11.02;5.53;;;;;;;7.41;64.45;99422.22;4983450;28;20088;-92
2022/04/21 05:54:04;;;;;;;7.57;6.07;;;;;;;7.64;62.70;99429.25;5008342;28;20021;-92
2022/04/21 05:56:30;;;;;;;9.43;5.38;;;;;;;7.75;62.68;99430.19;5026137;28;20442;-92
2022/04/21 05:58:55;;;;;;;9.38;5.90;;;;;;;7.88;62.52;99427.13;5025039;28;20037;-91
2022/04/21 06:01:21;;;;;;;7.10;5.32;;;;;;;8.00;62.81;99433.16;5004181;28;20033;-91
2022/04/21 06:03:46;;;;;;;12.57;5.93;;;;;;;8.04;62.78;99423.56;5004905;28;20108;-91
2022/04/21 06:06:12;;;;;;;8.85;6.00;;;;;;;8.10;62.25;99422.56;5013069;28;20024;-92
2022/04/21 06:08:38;;;;;;;11.38;5.40;;;;;;;8.10;62.21;99433.28;5045418;28;20032;-93
2022/04/21 06:11:04;;;;;;;10.20;5.40;;;;;;;8.09;62.29;99396.00;5010435;28;20021;-94
2022/04/21 06:13:30;;;;;;;8.90;5.05;;;;;;;8.36;61.04;99416.66;5008012;28;20088;-93
2022/04/21 06:15:59;;;;;;;6.32;4.80;;;;;;;8.63;60.58;99424.75;5014399;28;20042;-96
2022/04/21 06:18:25;;;;;;;6.75;4.57;;;;;;;8.67;59.01;99412.44;5033741;28;20484;-94
2022/04/21 06:20:52;;;;;;;8.48;4.90;;;;;;;8.84;58.86;99415.00;5026384;28;20022;-91
2022/04/21 06:23:20;;;;;;;10.13;4.28;;;;;;;8.96;58.62;99420.19;5012237;28;20031;-93
2022/04/21 06:25:46;;;;;;;7.78;4.63;;;;;;;9.02;58.84;99419.97;5012763;28;20035;-92
2022/04/21 06:28:11;;;;;;;11.85;5.40;;;;;;;9.10;59.44;99416.00;5005392;28;20033;-92
2022/04/21 06:30:37;;;;;;;16.40;5.90;;;;;;;9.03;57.28;99396.63;5022894;28;20030;-94
2022/04/21 06:33:19;;;;;;;9.95;4.57;;;;;;;9.33;56.59;99422.88;5025425;28;20040;-96
2022/04/21 06:35:44;;;;;;;6.45;4.30;;;;;;;9.20;56.10;99399.97;5007894;28;20030;-90
2022/04/21 06:38:13;;;;;;;11.02;5.97;;;;;;;9.43;56.62;99406.81;5026621;28;20030;-93
2022/04/21 06:40:39;;;;;;;9.75;6.13;;;;;;;9.63;56.28;99426.81;4988395;28;20032;-92
2022/04/21 06:48:01;;;;;;;10.45;5.60;;;;;;;9.61;56.86;99410.97;5042522;28;20029;-93
2022/04/21 06:48:36;;;;;;;5.35;4.25;;;;;;;9.91;55.34;99406.78;5048386;28;20132;-93
2022/04/21 06:51:09;;;;;;;12.20;5.97;;;;;;;10.04;54.88;99397.41;5036097;28;20017;-94
2022/04/21 06:53:48;;;;;;;9.95;7.80;;;;;;;10.34;54.07;99420.16;5031961;28;20056;-96
2022/04/21 06:56:53;;;;;;;11.30;8.95;;;;;;;10.42;52.40;99422.31;5027862;28;20031;-95
2022/04/21 06:59:20;;;;;;;13.60;8.48;;;;;;;10.40;53.68;99405.63;5053124;28;20475;-94
2022/04/21 07:01:48;;;;;;;34.75;11.57;;;;;;;10.39;54.38;99395.94;5028135;28;20088;-92
2022/04/21 07:04:18;;;;;;;14.02;7.35;;;;;;;10.61;52.75;99396.50;5021078;28;20021;-94
2022/04/21 07:06:44;;;;;;;5.03;4.32;;;;;;;10.72;49.70;99394.63;5001571;28;20034;-93
2022/04/21 07:09:12;;;;;;;7.00;4.25;;;;;;;11.07;49.49;99415.34;5022540;28;20113;-93
2022/04/21 07:11:42;;;;;;;6.38;4.72;;;;;;;11.13;49.76;99387.31;5022897;28;20157;-94
2022/04/21 07:14:08;;;;;;;22.98;10.75;;;;;;;11.35;49.78;99407.78;5006925;28;20434;-91
2022/04/21 07:16:33;;;;;;;35.92;13.98;;;;;;;11.05;50.69;99409.44;4991087;28;20014;-93
2022/04/21 07:19:04;;;;;;;11.10;5.70;;;;;;;11.09;49.63;99386.25;4988423;28;20021;-93
2022/04/21 07:21:35;;;;;;;13.88;6.63;;;;;;;11.21;49.86;99385.19;5022780;28;20089;-93
2022/04/21 07:24:04;;;;;;;8.20;5.43;;;;;;;11.40;48.95;99396.19;5003924;28;20026;-91
2022/04/21 07:26:30;;;;;;;7.00;5.32;;;;;;;11.68;47.54;99381.25;5016627;28;20030;-89
2022/04/21 07:28:57;;;;;;;12.48;5.47;;;;;;;11.45;48.89;99377.28;5000314;28;20037;-94
2022/04/21 07:31:29;;;;;;;7.43;4.70;;;;;;;11.83;46.59;99392.00;4986813;28;20033;-91
2022/04/21 07:33:54;;;;;;;;;;;;;;;12.07;45.27;99391.38;4990653;28;20477;-92
2022/04/21 07:36:20;;;;;;;11.45;6.00;;;;;;;12.05;47.78;99359.25;5036017;28;19916;-89
2022/04/21 07:38:49;;;;;;;6.82;4.72;;;;;;;12.36;45.98;99371.78;5013415;28;20352;-91
2022/04/21 07:41:17;;;;;;;105.90;74.68;;;;;;;12.67;45.50;99383.97;5003825;28;20025;-90
2022/04/21 07:43:44;;;;;;;21.90;13.35;;;;;;;12.74;46.79;99368.25;4975262;28;20127;-90
2022/04/21 07:46:09;;;;;;;8.00;5.93;;;;;;;12.83;44.74;99351.44;4987959;28;20057;-88
2022/04/21 07:51:20;;;;;;;8.57;5.00;;;;;;;13.09;42.38;99350.13;5013218;28;20117;-90
2022/04/21 07:53:46;;;;;;;7.82;4.88;;;;;;;13.17;43.11;99347.88;5007995;28;20044;-95
2022/04/21 07:56:12;;;;;;;10.93;4.30;;;;;;;13.00;42.63;99354.50;5008000;28;20024;-92
2022/04/21 07:58:37;;;;;;;7.65;5.05;;;;;;;12.92;42.61;99352.44;4990825;28;20022;-88
2022/04/21 08:01:03;;;;;;;7.13;4.70;;;;;;;13.09;42.79;99341.19;5012439;28;20013;-90
2022/04/21 08:03:35;;;;;;;9.60;5.20;;;;;;;13.19;42.47;99349.19;5003308;28;20049;-89
2022/04/21 08:06:01;;;;;;;6.53;4.85;;;;;;;13.17;41.82;99324.34;5022745;28;20029;-93
2022/04/21 08:08:27;;;;;;;11.43;4.95;;;;;;;13.44;43.45;99348.13;5025209;28;20029;-91
2022/04/21 08:10:52;;;;;;;14.10;6.15;;;;;;;13.67;41.89;99337.59;5002140;28;20033;-88
2022/04/21 08:13:19;;;;;;;11.88;5.38;;;;;;;13.56;42.25;99309.88;5022205;28;20026;-89
2022/04/21 08:15:49;;;;;;;15.30;5.50;;;;;;;13.36;42.88;99324.44;5005322;28;20029;-91
2022/04/21 08:18:18;;;;;;;7.88;5.30;;;;;;;13.54;40.56;99326.38;5002678;28;20036;-88
2022/04/21 08:20:43;;;;;;;5.10;4.55;;;;;;;13.51;38.96;99329.69;5004919;28;20032;-88
2022/04/21 08:23:09;;;;;;;6.25;4.72;;;;;;;13.77;39.17;99329.34;5020232;28;20093;-91
2022/04/21 08:33:52;;;;;;;5.60;4.43;;;;;;;14.17;38.04;99337.19;5002269;28;20029;-92
2022/04/21 08:36:18;;;;;;;6.15;4.78;;;;;;;13.59;38.78;99324.72;5006063;28;20024;-93
2022/04/21 08:38:43;;;;;;;8.57;4.93;;;;;;;13.74;37.68;99335.34;5008328;28;20035;-89
2022/04/21 08:41:10;;;;;;;9.05;5.43;;;;;;;13.95;38.66;99312.31;4988367;28;20044;-89
2022/04/21 08:43:36;;;;;;;5.18;3.80;;;;;;;14.14;35.79;99319.66;4999889;28;20081;-89
2022/04/21 08:46:03;;;;;;;11.52;4.80;;;;;;;14.12;37.73;99325.34;5017497;28;20030;-88
2022/04/21 08:48:28;;;;;;;4.07;3.47;;;;;;;14.19;35.45;99322.25;4986466;28;20030;-88
2022/04/21 08:50:54;;;;;;;3.72;3.30;;;;;;;14.05;34.40;99324.09;5005475;28;20502;-86
2022/04/21 08:53:21;;;;;;;11.23;3.70;;;;;;;14.38;35.06;99333.09;5041603;28;20065;-89
2022/04/21 08:55:50;;;;;;;5.93;3.53;;;;;;;14.43;35.08;99332.22;5020460;28;20025;-90
2022/04/21 08:58:16;;;;;;;8.32;4.05;;;;;;;14.59;35.80;99332.78;5009798;28;20089;-90
2022/04/21 09:00:43;;;;;;;4.13;3.40;;;;;;;14.67;35.53;99334.81;5018576;28;20049;-89
2022/04/21 09:03:10;;;;;;;5.63;3.55;;;;;;;14.51;34.28;99335.06;5036835;28;20477;-92
2022/04/21 09:05:36;;;;;;;8.68;4.72;;;;;;;14.57;34.92;99319.56;5019884;28;20063;-89
2022/04/21 09:08:01;;;;;;;37.55;25.38;;;;;;;14.70;34.18;99304.44;5014924;28;20034;-90
2022/04/21 09:10:28;;;;;;;6.78;4.68;;;;;;;14.73;34.68;99331.75;5001569;28;20028;-90
2022/04/21 09:13:18;;;;;;;7.65;3.88;;;;;;;14.59;35.51;99311.94;4979630;28;20088;-93
2022/04/21 09:15:45;;;;;;;7.32;4.40;;;;;;;14.87;36.54;99330.97;4999370;28;20048;-94
2022/04/21 09:18:33;;;;;;;13.55;5.22;;;;;;;15.03;36.02;99316.03;4994955;28;20419;-93
2022/04/21 09:21:16;;;;;;;8.48;4.10;;;;;;;15.18;35.16;99320.38;5012246;28;20535;-89
2022/04/21 09:23:46;;;;;;;7.80;4.10;;;;;;;15.42;34.21;99314.78;5002196;28;20026;-90
2022/04/21 09:26:14;;;;;;;6.32;4.07;;;;;;;15.14;35.24;99309.31;5016512;28;20025;-90
2022/04/21 09:28:39;;;;;;;10.25;4.30;;;;;;;15.25;36.02;99317.25;5009956;28;20029;-90
2022/04/21 09:31:07;;;;;;;10.48;5.90;;;;;;;14.97;36.97;99287.41;5009423;28;20053;-87
2022/04/21 09:33:34;;;;;;;4.43;4.03;;;;;;;15.38;33.76;99315.66;5004318;28;20045;-89
2022/04/21 09:36:04;;;;;;;6.15;4.10;;;;;;;15.53;33.20;99299.88;5009447;28;20036;-93
2022/04/21 09:38:35;;;;;;;4.90;4.38;;;;;;;15.73;34.71;99309.53;5008608;28;20025;-92
2022/04/21 09:41:22;;;;;;;13.63;5.25;;;;;;;15.69;35.41;99288.72;5012747;28;20024;-94
2022/04/21 09:43:48;;;;;;;4.40;3.45;;;;;;;15.74;33.12;99294.84;5054416;28;20148;-96
2022/04/21 09:46:24;;;;;;;7.68;4.22;;;;;;;15.52;33.57;99287.44;5007469;28;20046;-93
2022/04/21 09:48:53;;;;;;;11.63;3.45;;;;;;;15.74;33.79;99294.06;5023275;28;20034;-92
2022/04/21 09:51:30;;;;;;;6.72;3.97;;;;;;;15.73;34.16;99284.31;5007964;28;20030;-90
2022/04/21 09:53:58;;;;;;;9.00;4.20;;;;;;;16.02;33.80;99313.81;5008448;28;20064;-89
2022/04/21 09:56:40;;;;;;;14.57;3.60;;;;;;;15.74;33.93;99284.00;5024379;28;20052;-91
2022/04/21 09:59:08;;;;;;;5.40;3.85;;;;;;;16.01;34.38;99286.94;5015328;28;20040;-91
2022/04/21 10:02:00;;;;;;;4.40;3.53;;;;;;;16.34;33.52;99301.91;5025572;28;20460;-93
2022/04/21 10:04:32;;;;;;;16.42;8.95;;;;;;;16.31;34.17;99294.41;5006301;28;20034;-92
2022/04/21 10:07:00;;;;;;;7.25;5.10;;;;;;;16.30;32.83;99286.53;5001131;28;20030;-92
2022/04/21 10:09:29;;;;;;;6.63;5.13;;;;;;;16.54;32.43;99295.19;4980817;28;20108;-92
2022/04/21 10:11:58;;;;;;;11.50;5.40;;;;;;;16.45;32.89;99275.28;5002620;28;20034;-95
2022/04/21 10:14:24;;;;;;;11.35;5.30;;;;;;;16.58;32.66;99281.78;4994251;28;20018;-94
2022/04/21 10:16:51;;;;;;;6.00;5.28;;;;;;;16.27;32.50;99257.25;4995207;28;20025;-92
2022/04/21 10:19:19;;;;;;;7.15;5.45;;;;;;;15.99;33.09;99276.38;5009920;28;20503;-94
2022/04/21 10:22:00;;;;;;;5.57;4.47;;;;;;;15.91;32.19;99256.19;4995743;28;20054;-93
2022/04/21 10:25:00;;;;;;;;;;;;;;;;;;;;;
2022/04/21 10:34:56;;;;;;;8.15;5.28;;;;;;;16.00;34.49;99267.16;4984000;28;20104;-95
2022/04/21 10:37:32;;;;;;;5.22;4.70;;;;;;;16.22;33.14;99244.59;4984190;28;20027;-93
2022/04/21 10:40:14;;;;;;;8.90;4.35;;;;;;;16.36;33.07;99239.13;4991040;28;20153;-92
2022/04/21 10:42:52;;;;;;;;;;;;;;;16.55;33.07;99282.41;4995648;28;20419;-94
2022/04/21 10:45:27;;;;;;;5.68;4.55;;;;;;;16.42;33.46;99247.94;5022942;28;20407;-93
2022/04/21 10:48:09;;;;;;;11.48;5.25;;;;;;;16.54;35.18;99256.34;4983006;28;20022;-95
2022/04/21 10:50:37;;;;;;;5.78;3.10;;;;;;;16.58;32.78;99243.72;4975350;28;20038;-94
2022/04/21 10:59:05;;;;;;;7.95;5.35;;;;;;;16.39;32.30;99249.34;5023134;28;20037;-94
2022/04/21 11:01:33;;;;;;;9.02;3.85;;;;;;;16.46;33.39;99257.09;4986879;28;20026;-91
2022/04/21 11:04:27;;;;;;;10.98;3.58;;;;;;;16.49;33.85;99242.88;5006733;28;20062;-95
2022/04/21 11:07:04;;;;;;;3.25;2.85;;;;;;;16.38;32.97;99230.66;5038191;28;20160;-94
2022/04/21 11:09:37;;;;;;;10.13;3.60;;;;;;;16.71;33.47;99252.91;5009614;28;20030;-90
2022/04/21 11:12:41;;;;;;;6.90;4.70;;;;;;;16.64;33.40;99252.53;5010511;28;20025;-92
2022/04/21 11:18:51;;;;;;;11.50;5.03;;;;;;;16.74;34.50;99222.38;4981108;28;20165;-92
2022/04/21 11:21:29;;;;;;;5.60;4.38;;;;;;;16.85;32.92;99231.91;4980345;28;20134;-93
2022/04/21 11:24:05;;;;;;;4.72;2.80;;;;;;;16.94;31.29;99229.22;5024544;28;20057;-93
2022/04/21 11:26:31;;;;;;;4.18;3.05;;;;;;;16.91;31.53;99218.94;5041431;28;20040;-91
2022/04/21 11:29:02;;;;;;;5.72;3.13;;;;;;;16.90;31.71;99225.50;4989648;28;20025;-90
2022/04/21 11:31:28;;;;;;;6.33;4.50;;;;;;;16.99;32.90;99212.72;5026947;28;20034;-95
2022/04/21 11:33:53;;;;;;;12.10;4.43;;;;;;;17.01;32.64;99202.34;4991870;28;20091;-92
2022/04/21 11:36:19;;;;;;;9.68;3.58;;;;;;;16.95;32.78;99206.31;5005108;28;20034;-92
2022/04/21 11:38:45;;;;;;;11.82;6.90;;;;;;;17.04;31.89;99212.59;5002579;28;20486;-91
2022/04/21 11:41:13;;;;;;;4.53;3.85;;;;;;;17.08;32.54;99199.16;4993788;28;20026;-92
2022/04/21 11:43:48;;;;;;;9.43;3.58;;;;;;;17.25;31.73;99196.50;5000736;28;20034;-93
2022/04/21 11:46:14;;;;;;;7.07;4.72;;;;;;;17.25;31.53;99191.06;5001912;28;20069;-92
2022/04/21 11:48:41;;;;;;;6.95;3.78;;;;;;;17.22;31.62;99188.16;4969262;28;20416;-91
2022/04/21 11:51:07;;;;;;;7.15;4.60;;;;;;;17.28;30.87;99204.00;5001363;28;20026;-91
2022/04/21 11:53:41;;;;;;;5.90;4.22;;;;;;;17.16;30.46;99182.06;4980064;28;20026;-93
2022/04/21 11:56:07;;;;;;;5.75;4.38;;;;;;;17.13;31.01;99172.59;4997982;28;20105;-90
2022/04/21 11:58:34;;;;;;;3.42;3.10;;;;;;;16.96;31.25;99175.28;4986261;28;20093;-94
2022/04/21 12:06:55;;;;;;;10.80;3.63;;;;;;;17.09;32.94;99187.16;4972474;28;20041;-92
2022/04/21 12:09:25;;;;;;;4.70;2.92;;;;;;;17.11;32.93;99182.22;4980033;28;20062;-87
2022/04/21 12:11:58;;;;;;;4.80;3.42;;;;;;;17.12;31.80;99143.81;4967029;28;20038;-91
2022/04/21 12:14:23;;;;;;;10.05;5.30;;;;;;;17.17;32.51;99176.28;4967271;28;20037;-91
2022/04/21 12:16:59;;;;;;;3.47;2.80;;;;;;;16.91;30.64;99159.09;4983852;28;20046;-91
2022/04/21 12:19:42;;;;;;;6.75;3.90;;;;;;;17.09;30.79;99158.03;4987000;28;20033;-92
2022/04/21 12:22:12;;;;;;;9.20;4.13;;;;;;;17.38;29.83;99194.75;4982813;28;20097;-93
2022/04/21 12:25:02;;;;;;;6.10;3.80;;;;;;;17.30;34.97;99192.81;4988287;28;20033;-94
2022/04/21 12:27:34;;;;;;;5.53;3.83;;;;;;;16.98;35.66;99154.03;4990466;28;20484;-93
2022/04/21 12:30:04;;;;;;;;;;;;;;;17.10;35.39;99175.97;4985853;28;20033;-93
2022/04/21 12:32:40;;;;;;;8.48;5.53;;;;;;;16.89;36.54;99143.13;4985431;28;19909;-94
2022/04/21 12:35:08;;;;;;;8.60;5.18;;;;;;;17.00;37.42;99161.88;4998793;28;20033;-94
2022/04/21 12:37:39;;;;;;;9.95;6.90;;;;;;;16.90;37.87;99152.88;5003311;28;20041;-95
2022/04/21 12:40:06;;;;;;;12.18;5.15;;;;;;;16.82;38.98;99161.81;5003976;28;20025;-89
2022/04/21 12:42:55;;;;;;;9.10;5.25;;;;;;;16.39;39.33;99120.84;5004687;28;20431;-93
2022/04/21 12:45:20;;;;;;;10.15;4.65;;;;;;;16.76;38.94;99144.78;5008682;28;20026;-93
2022/04/21 12:47:52;;;;;;;6.15;4.10;;;;;;;16.89;38.30;99143.13;4990933;28;20036;-94